Terminal Aerodrome Forecast
Issued by NWS Billings, MT

Home | Current Version | Previous Version | Graphics & Text | Print | Product List | Glossary On
Versions: 1 2 3 4 5 6 7 8 9 10 11 12 13 14
000
FTUS45 KBYZ 270520
TAFMLS
TAF
KMLS 270520Z 2706/2806 VRB05KT P6SM FEW080
     FM271000 VRB05KT P6SM VCFG FEW005 SCT080
     FM271600 VRB05KT P6SM FEW015 SCT060
     FM272200 VRB05KT P6SM BKN050
     FM280400 06008KT P6SM FEW015 SCT060=

USA.gov is the U.S. government's official web portal to all federal, state and local government web resources and services.